createdAt,value
2023-08-20T00:00:22.321Z,86.41
2023-08-20T00:03:14.959Z,86.60
2023-08-20T00:06:12.246Z,86.58
2023-08-20T00:09:02.993Z,86.59
2023-08-20T00:12:00.217Z,86.50
2023-08-20T00:15:06.223Z,86.32
2023-08-20T00:18:04.249Z,86.20
2023-08-20T00:20:55.585Z,86.26
2023-08-20T00:23:53.266Z,86.44
2023-08-20T00:26:44.344Z,86.45
2023-08-20T00:29:42.220Z,86.19
2023-08-20T00:32:33.020Z,86.23
2023-08-20T00:35:30.221Z,86.28
2023-08-20T00:38:20.894Z,86.18
2023-08-20T00:41:18.211Z,86.14
2023-08-20T00:44:08.862Z,86.06
2023-08-20T00:47:08.209Z,85.96
2023-08-20T00:49:59.285Z,86.06
2023-08-20T00:52:56.190Z,86.36
2023-08-20T00:55:46.892Z,86.52
2023-08-20T00:58:44.199Z,86.27
2023-08-20T01:01:34.874Z,86.25
2023-08-20T01:04:32.251Z,86.16
2023-08-20T01:07:35.709Z,86.11
2023-08-20T01:10:38.192Z,86.28
2023-08-20T01:13:29.023Z,86.13
2023-08-20T01:16:26.214Z,86.24
2023-08-20T01:19:22.835Z,86.45
2023-08-20T01:22:42.248Z,86.73
2023-08-20T01:26:22.158Z,86.72
2023-08-20T01:29:20.173Z,86.67
2023-08-20T01:32:13.089Z,86.79
2023-08-20T01:35:11.234Z,86.79
2023-08-20T01:38:01.885Z,86.75
2023-08-20T01:40:59.205Z,86.81
2023-08-20T01:43:49.865Z,86.69
2023-08-20T01:46:47.190Z,86.62
2023-08-20T01:49:44.190Z,86.59
2023-08-20T01:52:34.922Z,86.56
2023-08-20T01:55:33.029Z,86.75
2023-08-20T01:58:24.438Z,87.04
2023-08-20T02:01:21.234Z,87.13
2023-08-20T02:04:12.032Z,87.31
2023-08-20T02:07:09.213Z,87.23
2023-08-20T02:10:00.016Z,87.24
2023-08-20T02:12:57.165Z,87.23
2023-08-20T02:15:47.819Z,87.28
2023-08-20T02:18:45.193Z,87.21
2023-08-20T02:21:36.114Z,87.20
2023-08-20T02:24:33.180Z,87.18
2023-08-20T02:27:23.919Z,87.12
2023-08-20T02:30:21.188Z,87.10
2023-08-20T02:33:12.339Z,87.20
2023-08-20T02:36:11.173Z,87.24
2023-08-20T02:39:01.863Z,87.32
2023-08-20T02:41:59.219Z,87.23
2023-08-20T02:44:50.250Z,87.09
2023-08-20T02:47:47.214Z,87.22
2023-08-20T02:50:38.013Z,87.17
2023-08-20T02:53:35.166Z,87.13
2023-08-20T02:56:25.848Z,87.49
2023-08-20T02:59:23.172Z,87.50
2023-08-20T03:02:13.854Z,87.51
2023-08-20T03:05:13.158Z,87.33
2023-08-20T03:08:06.756Z,87.39
2023-08-20T03:11:04.143Z,87.35
2023-08-20T03:13:54.821Z,87.44
2023-08-20T03:16:52.146Z,87.68
2023-08-20T03:19:59.337Z,87.77
2023-08-20T03:22:57.150Z,87.77
2023-08-20T03:25:47.801Z,87.75
2023-08-20T03:28:45.139Z,87.65
2023-08-20T03:31:35.857Z,87.57
2023-08-20T03:34:33.135Z,87.43
2023-08-20T03:37:23.865Z,87.61
2023-08-20T03:40:21.167Z,87.61
2023-08-20T03:43:11.995Z,87.68
2023-08-20T03:46:10.189Z,87.70
2023-08-20T03:49:00.981Z,87.56
2023-08-20T03:51:58.123Z,87.50
2023-08-20T03:54:55.161Z,87.43
2023-08-20T03:57:46.277Z,87.42
2023-08-20T04:00:44.119Z,87.41
2023-08-20T04:03:34.827Z,87.40
2023-08-20T04:06:32.121Z,87.37
2023-08-20T04:09:22.951Z,87.38
2023-08-20T04:12:20.160Z,87.43
2023-08-20T04:15:10.912Z,87.58
2023-08-20T04:18:08.161Z,87.51
2023-08-20T04:20:59.048Z,87.39
2023-08-20T04:23:56.124Z,87.45
2023-08-20T04:26:46.859Z,87.62
2023-08-20T04:29:44.120Z,87.70
2023-08-20T04:32:34.900Z,87.61
2023-08-20T04:35:32.119Z,87.54
2023-08-20T04:38:23.450Z,87.45
2023-08-20T04:41:21.273Z,87.48
2023-08-20T04:44:12.033Z,87.50
2023-08-20T04:47:09.103Z,87.74
2023-08-20T04:49:59.763Z,87.77
2023-08-20T04:52:57.152Z,87.97
2023-08-20T04:55:47.827Z,88.06
2023-08-20T04:58:45.137Z,88.17
2023-08-20T05:01:35.840Z,88.07
2023-08-20T05:04:33.084Z,87.98
2023-08-20T05:07:30.079Z,88.11
2023-08-20T05:10:28.132Z,88.14
2023-08-20T05:13:21.234Z,88.15
2023-08-20T05:16:18.166Z,88.16
2023-08-20T05:19:08.864Z,88.30
2023-08-20T05:22:07.114Z,88.07
2023-08-20T05:25:04.197Z,87.98
2023-08-20T05:28:02.134Z,87.94
2023-08-20T05:30:57.640Z,87.64
2023-08-20T05:33:55.123Z,87.27
2023-08-20T05:36:45.804Z,86.94
2023-08-20T05:39:51.123Z,86.27
2023-08-20T05:42:41.825Z,85.79
2023-08-20T05:45:39.137Z,85.07
2023-08-20T05:48:30.201Z,84.41
2023-08-20T05:51:27.110Z,83.43
2023-08-20T05:54:17.858Z,82.39
2023-08-20T05:57:15.095Z,80.79
2023-08-20T06:00:06.805Z,79.81
2023-08-20T06:03:04.138Z,78.49
2023-08-20T06:05:54.880Z,77.02
2023-08-20T06:09:06.632Z,76.01
2023-08-20T06:11:58.806Z,74.47
2023-08-20T06:14:56.119Z,72.97
2023-08-20T06:17:46.814Z,71.86
2023-08-20T06:20:44.143Z,70.85
2023-08-20T06:23:44.105Z,70.45
2023-08-20T06:26:42.082Z,70.11
2023-08-20T06:29:32.860Z,69.50
2023-08-20T06:32:32.101Z,68.02
2023-08-20T06:35:22.832Z,66.35
2023-08-20T06:38:20.227Z,65.21
2023-08-20T06:41:10.921Z,64.08
2023-08-20T06:44:08.085Z,63.85
2023-08-20T06:46:58.769Z,62.44
2023-08-20T06:49:58.097Z,61.83
2023-08-20T06:52:48.790Z,61.41
2023-08-20T06:55:46.098Z,61.00
2023-08-20T06:58:37.204Z,62.07
2023-08-20T07:01:34.152Z,61.75
2023-08-20T07:04:25.095Z,60.08
2023-08-20T07:07:22.248Z,59.62
2023-08-20T07:10:13.301Z,59.74
2023-08-20T07:13:11.092Z,59.20
2023-08-20T07:16:01.946Z,58.96
2023-08-20T07:19:01.020Z,58.16
2023-08-20T07:21:51.712Z,57.66
2023-08-20T07:24:49.051Z,56.37
2023-08-20T07:27:39.717Z,56.33
2023-08-20T07:30:37.051Z,57.69
2023-08-20T07:33:27.717Z,57.42
2023-08-20T07:36:26.084Z,56.30
2023-08-20T07:39:18.666Z,54.39
2023-08-20T07:42:16.217Z,54.38
2023-08-20T07:45:08.320Z,53.58
2023-08-20T07:48:07.245Z,53.67
2023-08-20T07:50:58.201Z,53.20
2023-08-20T07:53:55.054Z,53.18
2023-08-20T07:57:14.013Z,52.24
2023-08-20T08:00:12.104Z,51.07
2023-08-20T08:03:02.867Z,51.62
2023-08-20T08:06:02.329Z,50.40
2023-08-20T08:08:54.820Z,51.71
2023-08-20T08:11:54.067Z,51.67
2023-08-20T08:14:45.001Z,51.27
2023-08-20T08:17:42.045Z,50.56
2023-08-20T08:20:33.060Z,49.81
2023-08-20T08:23:30.049Z,49.48
2023-08-20T08:26:20.737Z,52.27
2023-08-20T08:29:18.066Z,50.35
2023-08-20T08:32:08.630Z,51.67
2023-08-20T08:35:06.074Z,51.92
2023-08-20T08:38:11.021Z,51.13
2023-08-20T08:41:02.509Z,49.48
2023-08-20T08:44:01.128Z,52.10
2023-08-20T08:46:52.717Z,50.51
2023-08-20T08:49:53.084Z,51.38
2023-08-20T08:52:47.150Z,49.91
2023-08-20T08:55:45.026Z,49.94
2023-08-20T08:58:35.721Z,51.20
2023-08-20T09:01:34.590Z,50.37
2023-08-20T09:04:25.645Z,49.77
2023-08-20T09:07:23.046Z,50.52
2023-08-20T09:10:13.666Z,50.35
2023-08-20T09:13:12.043Z,50.39
2023-08-20T09:16:07.922Z,49.32
2023-08-20T09:19:09.020Z,50.73
2023-08-20T09:22:09.027Z,47.59
2023-08-20T09:24:59.866Z,48.24
2023-08-20T09:27:57.040Z,48.81
2023-08-20T09:31:03.922Z,51.82
2023-08-20T09:34:03.042Z,52.00
2023-08-20T09:36:53.923Z,49.85
2023-08-20T09:39:51.462Z,51.11
2023-08-20T09:42:43.483Z,53.40
2023-08-20T09:45:41.067Z,50.95
2023-08-20T09:48:38.685Z,50.45
2023-08-20T09:51:41.038Z,51.70
2023-08-20T09:54:51.776Z,53.13
2023-08-20T09:57:50.023Z,51.06
2023-08-20T10:00:40.894Z,50.70
2023-08-20T10:03:38.045Z,49.49
2023-08-20T10:06:30.509Z,49.98
2023-08-20T10:09:29.128Z,48.57
2023-08-20T10:12:21.331Z,48.91
2023-08-20T10:15:22.154Z,48.82
2023-08-20T10:18:15.364Z,48.78
2023-08-20T10:21:16.020Z,47.84
2023-08-20T10:24:10.012Z,45.60
2023-08-20T10:27:19.005Z,46.53
2023-08-20T10:30:19.638Z,45.67
2023-08-20T10:33:16.990Z,47.86
2023-08-20T10:36:28.060Z,46.37
2023-08-20T10:39:32.979Z,45.65
2023-08-20T10:42:34.000Z,45.16
2023-08-20T10:45:31.062Z,45.58
2023-08-20T10:48:21.672Z,43.64
2023-08-20T10:51:36.039Z,45.76
2023-08-20T10:54:26.854Z,45.21
2023-08-20T10:57:25.485Z,45.40
2023-08-20T11:00:17.638Z,45.73
2023-08-20T11:03:16.012Z,45.65
2023-08-20T11:06:07.900Z,46.07
2023-08-20T11:09:06.004Z,45.71
2023-08-20T11:11:57.342Z,44.88
2023-08-20T11:14:57.103Z,45.55
2023-08-20T11:17:51.335Z,45.24
2023-08-20T11:20:49.030Z,43.85
2023-08-20T11:23:42.738Z,44.69
2023-08-20T11:26:42.047Z,43.84
2023-08-20T11:29:32.823Z,43.68
2023-08-20T11:32:31.986Z,42.40
2023-08-20T11:35:22.800Z,44.14
2023-08-20T11:38:21.036Z,43.93
2023-08-20T11:41:11.734Z,44.60
2023-08-20T11:44:09.002Z,44.57
2023-08-20T11:46:59.721Z,45.71
2023-08-20T11:50:11.988Z,48.10
2023-08-20T11:53:04.337Z,47.47
2023-08-20T11:56:01.976Z,45.41
2023-08-20T11:58:53.645Z,44.27
2023-08-20T12:01:51.046Z,43.56
2023-08-20T12:04:41.769Z,42.68
2023-08-20T12:07:39.289Z,42.43
2023-08-20T12:10:32.521Z,42.57
2023-08-20T12:13:29.995Z,42.93
2023-08-20T12:16:24.466Z,41.87
2023-08-20T12:19:22.020Z,43.51
2023-08-20T12:22:13.345Z,41.72
2023-08-20T12:25:10.994Z,40.65
2023-08-20T12:28:08.941Z,42.44
2023-08-20T12:31:06.056Z,41.36
2023-08-20T12:33:56.619Z,40.39
2023-08-20T12:36:54.053Z,41.43
2023-08-20T12:39:44.772Z,42.30
2023-08-20T12:42:43.762Z,41.61
2023-08-20T12:45:35.489Z,40.81
2023-08-20T12:48:32.998Z,41.35
2023-08-20T12:51:23.694Z,40.25
2023-08-20T12:54:21.037Z,39.68
2023-08-20T12:57:11.708Z,41.78
2023-08-20T13:00:19.004Z,43.42
2023-08-20T13:03:10.543Z,44.13
2023-08-20T13:06:07.980Z,43.09
2023-08-20T13:08:59.450Z,42.14
2023-08-20T13:11:59.000Z,42.93
2023-08-20T13:14:50.122Z,42.57
2023-08-20T13:17:48.204Z,41.96
2023-08-20T13:20:38.960Z,41.13
2023-08-20T13:23:35.942Z,42.72
2023-08-20T13:26:26.604Z,41.70
2023-08-20T13:29:23.950Z,41.90
2023-08-20T13:32:14.633Z,41.53
2023-08-20T13:35:13.030Z,41.33
2023-08-20T13:38:05.653Z,41.13
2023-08-20T13:41:09.235Z,43.26
2023-08-20T13:44:03.913Z,43.98
2023-08-20T13:47:03.980Z,43.71
2023-08-20T13:49:54.675Z,43.78
2023-08-20T13:52:51.940Z,42.26
2023-08-20T13:55:42.820Z,42.54
2023-08-20T13:58:39.943Z,42.82
2023-08-20T14:01:30.575Z,43.11
2023-08-20T14:04:28.200Z,43.23
2023-08-20T14:07:19.679Z,42.54
2023-08-20T14:10:17.958Z,42.17
2023-08-20T14:13:08.601Z,42.15
2023-08-20T14:16:06.004Z,42.27
2023-08-20T14:18:56.779Z,43.20
2023-08-20T14:21:53.925Z,43.00
2023-08-20T14:24:44.545Z,42.57
2023-08-20T14:27:41.933Z,43.31
2023-08-20T14:30:36.983Z,43.50
2023-08-20T14:33:38.116Z,43.25
2023-08-20T14:36:28.806Z,42.32
2023-08-20T14:39:25.953Z,42.68
2023-08-20T14:42:16.531Z,42.95
2023-08-20T14:45:13.966Z,43.61
2023-08-20T14:48:05.177Z,44.14
2023-08-20T14:51:02.970Z,43.90
2023-08-20T14:53:53.662Z,43.88
2023-08-20T14:56:51.932Z,44.34
2023-08-20T14:59:43.142Z,44.98
2023-08-20T15:02:40.011Z,45.16
2023-08-20T15:05:31.581Z,45.12
2023-08-20T15:08:28.912Z,45.75
2023-08-20T15:11:25.977Z,45.58
2023-08-20T15:14:16.697Z,45.16
2023-08-20T15:17:13.954Z,45.86
2023-08-20T15:20:13.400Z,46.75
2023-08-20T15:23:11.933Z,46.87
2023-08-20T15:26:02.638Z,47.48
2023-08-20T15:28:59.951Z,47.01
2023-08-20T15:31:52.663Z,47.35
2023-08-20T15:34:49.944Z,46.81
2023-08-20T15:37:41.097Z,47.45
2023-08-20T15:40:39.174Z,47.68
2023-08-20T15:43:30.117Z,48.18
2023-08-20T15:46:27.935Z,48.05
2023-08-20T15:49:18.662Z,48.48
2023-08-20T15:52:15.901Z,49.30
2023-08-20T15:55:07.172Z,49.26
2023-08-20T15:58:04.885Z,49.55
2023-08-20T16:00:55.493Z,49.21
2023-08-20T16:03:53.106Z,50.15
2023-08-20T16:06:50.019Z,50.19
2023-08-20T16:09:46.913Z,50.68
2023-08-20T16:12:41.423Z,51.14
2023-08-20T16:15:38.908Z,51.08
2023-08-20T16:18:29.610Z,50.85
2023-08-20T16:21:26.924Z,51.25
2023-08-20T16:24:17.598Z,51.40
2023-08-20T16:27:14.939Z,51.62
2023-08-20T16:30:07.424Z,51.82
2023-08-20T16:33:04.983Z,52.04
2023-08-20T16:35:55.827Z,52.21
2023-08-20T16:38:52.893Z,52.89
2023-08-20T16:41:43.700Z,53.28
2023-08-20T16:44:40.861Z,53.58
2023-08-20T16:47:31.561Z,53.89
2023-08-20T16:50:29.872Z,53.97
2023-08-20T16:53:20.629Z,54.25
2023-08-20T16:56:17.891Z,54.80
2023-08-20T16:59:09.459Z,55.23
2023-08-20T17:02:06.919Z,55.79
2023-08-20T17:04:57.644Z,56.84
2023-08-20T17:07:54.914Z,57.65
2023-08-20T17:10:45.657Z,58.12
2023-08-20T17:13:43.904Z,59.02
2023-08-20T17:16:42.271Z,60.88
2023-08-20T17:19:39.642Z,62.13
2023-08-20T17:22:30.946Z,63.00
2023-08-20T17:25:27.886Z,63.77
2023-08-20T17:28:18.824Z,64.50
2023-08-20T17:31:15.923Z,65.48
2023-08-20T17:34:06.911Z,66.47
2023-08-20T17:37:05.995Z,67.11
2023-08-20T17:39:56.576Z,67.64
2023-08-20T17:42:53.865Z,68.08
2023-08-20T17:45:44.920Z,68.67
2023-08-20T17:48:41.855Z,68.80
2023-08-20T17:51:32.483Z,69.30
2023-08-20T17:54:29.885Z,69.56
2023-08-20T17:57:20.776Z,70.04
2023-08-20T18:00:17.897Z,70.05
2023-08-20T18:03:08.464Z,70.57
2023-08-20T18:06:07.874Z,71.13
2023-08-20T18:08:58.444Z,71.45
2023-08-20T18:11:55.863Z,71.85
2023-08-20T18:14:46.412Z,71.79
2023-08-20T18:17:43.912Z,72.47
2023-08-20T18:20:34.702Z,72.72
2023-08-20T18:23:31.905Z,72.64
2023-08-20T18:26:22.661Z,72.61
2023-08-20T18:29:19.874Z,72.76
2023-08-20T18:32:10.431Z,73.16
2023-08-20T18:35:07.871Z,73.72
2023-08-20T18:37:58.419Z,74.38
2023-08-20T18:40:55.842Z,74.49
2023-08-20T18:43:46.476Z,74.69
2023-08-20T18:46:43.862Z,74.96
2023-08-20T18:49:35.272Z,75.14
2023-08-20T18:52:31.852Z,75.36
2023-08-20T18:55:23.368Z,75.41
2023-08-20T18:58:20.874Z,75.80
2023-08-20T19:01:12.207Z,75.94
2023-08-20T19:04:10.985Z,75.95
2023-08-20T19:07:02.308Z,76.15
2023-08-20T19:09:59.909Z,76.24
2023-08-20T19:12:50.467Z,76.52
2023-08-20T19:15:54.935Z,76.58
2023-08-20T19:18:52.367Z,76.97
2023-08-20T19:21:49.836Z,77.33
2023-08-20T19:24:40.435Z,77.47
2023-08-20T19:27:38.811Z,77.68
2023-08-20T19:30:36.863Z,78.10
2023-08-20T19:33:27.538Z,78.41
2023-08-20T19:36:24.869Z,78.57
2023-08-20T19:39:17.031Z,78.67
2023-08-20T19:42:15.844Z,78.93
2023-08-20T19:45:07.165Z,79.17
2023-08-20T19:48:04.060Z,79.28
2023-08-20T19:50:54.692Z,79.24
2023-08-20T19:53:51.841Z,79.20
2023-08-20T19:56:42.532Z,79.17
2023-08-20T19:59:39.841Z,79.26
2023-08-20T20:02:30.449Z,79.43
2023-08-20T20:05:28.826Z,79.75
2023-08-20T20:08:20.201Z,79.99
2023-08-20T20:11:18.836Z,80.21
2023-08-20T20:14:09.376Z,80.39
2023-08-20T20:17:06.829Z,80.33
2023-08-20T20:19:57.383Z,80.35
2023-08-20T20:22:54.810Z,80.42
2023-08-20T20:25:45.402Z,80.47
2023-08-20T20:28:46.837Z,80.36
2023-08-20T20:31:37.501Z,80.16
2023-08-20T20:34:34.849Z,80.47
2023-08-20T20:37:25.662Z,80.46
2023-08-20T20:40:22.799Z,80.55
2023-08-20T20:43:13.496Z,80.49
2023-08-20T20:46:11.022Z,80.78
2023-08-20T20:49:02.165Z,80.97
2023-08-20T20:51:59.799Z,81.08
2023-08-20T20:54:50.385Z,81.31
2023-08-20T20:57:48.199Z,81.20
2023-08-20T21:00:38.801Z,81.21
2023-08-20T21:03:35.803Z,81.17
2023-08-20T21:06:26.405Z,81.29
2023-08-20T21:09:23.819Z,81.18
2023-08-20T21:12:14.358Z,81.41
2023-08-20T21:15:11.829Z,81.63
2023-08-20T21:18:02.531Z,81.82
2023-08-20T21:20:59.812Z,81.73
2023-08-20T21:23:50.434Z,81.71
2023-08-20T21:26:47.788Z,81.83
2023-08-20T21:29:39.172Z,82.06
2023-08-20T21:32:36.115Z,82.31
2023-08-20T21:35:26.920Z,82.21
2023-08-20T21:38:24.801Z,82.07
2023-08-20T21:41:15.350Z,82.14
2023-08-20T21:44:12.782Z,82.16
2023-08-20T21:47:20.211Z,82.36
2023-08-20T21:50:17.861Z,82.56
2023-08-20T21:53:08.429Z,82.46
2023-08-20T21:56:05.806Z,82.50
2023-08-20T21:58:56.469Z,82.52
2023-08-20T22:01:53.827Z,82.71
2023-08-20T22:04:44.947Z,82.70
2023-08-20T22:07:41.787Z,82.69
2023-08-20T22:10:32.322Z,82.65
2023-08-20T22:13:29.813Z,82.63
2023-08-20T22:16:20.417Z,82.91
2023-08-20T22:19:17.774Z,82.85
2023-08-20T22:22:08.336Z,82.88
2023-08-20T22:25:05.794Z,83.57
2023-08-20T22:27:56.364Z,83.76
2023-08-20T22:30:53.765Z,83.66
2023-08-20T22:33:44.340Z,83.28
2023-08-20T22:36:41.778Z,83.32
2023-08-20T22:39:32.337Z,83.56
2023-08-20T22:42:29.734Z,84.08
2023-08-20T22:45:26.781Z,83.72
2023-08-20T22:48:17.474Z,83.78
2023-08-20T22:51:14.807Z,83.97
2023-08-20T22:54:05.374Z,84.57
2023-08-20T22:57:02.803Z,84.65
2023-08-20T22:59:53.350Z,84.31
2023-08-20T23:02:50.809Z,84.53
2023-08-20T23:05:41.392Z,84.63
2023-08-20T23:08:38.761Z,84.82
2023-08-20T23:11:29.317Z,84.79
2023-08-20T23:14:26.767Z,84.71
2023-08-20T23:17:19.108Z,84.73
2023-08-20T23:20:16.747Z,84.52
2023-08-20T23:23:07.351Z,84.41
2023-08-20T23:26:04.762Z,84.34
2023-08-20T23:28:55.534Z,84.62
2023-08-20T23:31:52.763Z,84.60
2023-08-20T23:34:43.624Z,84.77
2023-08-20T23:37:40.761Z,85.07
2023-08-20T23:40:31.320Z,85.08
2023-08-20T23:43:29.762Z,85.09
2023-08-20T23:46:25.502Z,85.09
2023-08-20T23:49:27.753Z,85.05
2023-08-20T23:52:18.352Z,84.89
2023-08-20T23:55:15.734Z,84.85
2023-08-20T23:58:12.729Z,84.71
